8°C Temp
6°C Dewpoint
87% Humidity
Temperature
8 KM/H
5 MPH
4 KTS
70°
East North
East

Wind Speed
Mostly Cloudy
Conditions
Pressure 1021.92 (hPa) - 30.18 (in)
Visibility 6.2 (mi) - 10.0 (km)

Current Conditions
EGAA
Location 70(mi)
Metar :EGAA 281820Z 07004KT 030V090 9999 BKN012 08/06 Q1022
Sat 28th November 19:20 pm

Airport
  Metar Aviation API Data Provided by https://www.checkwx.com/ PHP scripts by weather34.com ©2020